This is the latest recevied weather packets stored in our database for station/object SQ5DN-4. If no packets are shown the sender has not sent any weather packets the latest 10 day(s).
| Time | Temp. | Humidity | Pressure | Rain* | Wind** | Luminosity | Snow |
|---|---|---|---|---|---|---|---|
| 1777780102 | 6.67° C | 79% | 1014 hPa | - | - | - | - |
| 1777779587 | 6.67° C | 79% | 1014 hPa | - | - | - | - |
| 1777779096 | 7.22° C | 79% | 1014 hPa | - | - | - | - |
| 1777778552 | 7.22° C | 78% | 1014 hPa | - | - | - | - |
| 1777777997 | 7.22° C | 76% | 1014 hPa | - | - | - | - |
| 1777777482 | 7.22° C | 76% | 1014 hPa | - | - | - | - |
| 1777776887 | 7.78° C | 76% | 1014 hPa | - | - | - | - |
| 1777776376 | 6.67° C | 78% | 1014 hPa | - | - | - | - |
| 1777775897 | 7.22° C | 76% | 1014 hPa | - | - | - | - |
| 1777775402 | 7.22° C | 76% | 1014 hPa | - | - | - | - |
| 1777774902 | 7.78° C | 74% | 1014 hPa | - | - | - | - |
| 1777774392 | 8.33° C | 71% | 1014 hPa | - | - | - | - |
| 1777773847 | 8.33° C | 71% | 1014 hPa | - | - | - | - |
| 1777773276 | 8.89° C | 70% | 1014 hPa | - | - | - | - |
| 1777772752 | 9.44° C | 67% | 1014 hPa | - | - | - | - |
| 1777772242 | 10° C | 65% | 1014 hPa | - | - | - | - |
| 1777771676 | 10.56° C | 63% | 1014 hPa | - | - | - | - |
| 1777771147 | 10.56° C | 63% | 1014 hPa | - | - | - | - |
| 1777770647 | 10.56° C | 64% | 1014 hPa | - | - | - | - |
| 1777770072 | 10° C | 64% | 1014 hPa | - | - | - | - |
| 1777769576 | 9.44° C | 67% | 1014 hPa | - | - | - | - |
| 1777769042 | 9.44° C | 67% | 1014 hPa | - | - | - | - |
| 1777768518 | 7.78° C | 71% | 1014 hPa | - | - | - | - |
| 1777767987 | 8.33° C | 70% | 1014 hPa | - | - | - | - |
| 1777767487 | 9.44° C | 66% | 1014 hPa | - | - | - | - |
* Rain since midnight (hover to see other rain measurements)
** Current wind speed in m/s (hover to see current wind gust speed)